sensor_id;sensor_type;location;lat;lon;timestamp;P1;durP1;ratioP1;P2;durP2;ratioP2
54705;SDS011;40603;48.774;8.916;2023-06-04T00:00:50;6.32;;;4.75;;
54705;SDS011;40603;48.774;8.916;2023-06-04T00:03:16;7.80;;;4.82;;
54705;SDS011;40603;48.774;8.916;2023-06-04T00:05:41;9.35;;;4.53;;
54705;SDS011;40603;48.774;8.916;2023-06-04T00:08:06;8.73;;;4.63;;
54705;SDS011;40603;48.774;8.916;2023-06-04T00:10:32;9.02;;;5.50;;
54705;SDS011;40603;48.774;8.916;2023-06-04T00:12:58;9.10;;;5.90;;
54705;SDS011;40603;48.774;8.916;2023-06-04T00:15:24;9.13;;;4.90;;
54705;SDS011;40603;48.774;8.916;2023-06-04T00:17:49;10.93;;;5.05;;
54705;SDS011;40603;48.774;8.916;2023-06-04T00:20:16;9.35;;;4.95;;
54705;SDS011;40603;48.774;8.916;2023-06-04T00:22:42;9.38;;;5.25;;
54705;SDS011;40603;48.774;8.916;2023-06-04T00:25:08;8.60;;;5.55;;
54705;SDS011;40603;48.774;8.916;2023-06-04T00:27:34;9.38;;;5.55;;
54705;SDS011;40603;48.774;8.916;2023-06-04T00:30:00;9.85;;;5.03;;
54705;SDS011;40603;48.774;8.916;2023-06-04T00:32:25;8.95;;;5.32;;
54705;SDS011;40603;48.774;8.916;2023-06-04T00:34:54;11.00;;;5.93;;
54705;SDS011;40603;48.774;8.916;2023-06-04T00:37:21;9.65;;;5.07;;
54705;SDS011;40603;48.774;8.916;2023-06-04T00:39:47;9.82;;;5.15;;
54705;SDS011;40603;48.774;8.916;2023-06-04T00:42:13;10.38;;;5.40;;
54705;SDS011;40603;48.774;8.916;2023-06-04T00:44:38;11.07;;;5.10;;
54705;SDS011;40603;48.774;8.916;2023-06-04T00:47:08;8.43;;;5.47;;
54705;SDS011;40603;48.774;8.916;2023-06-04T00:49:33;15.23;;;6.47;;
54705;SDS011;40603;48.774;8.916;2023-06-04T00:51:58;10.48;;;4.80;;
54705;SDS011;40603;48.774;8.916;2023-06-04T00:54:24;9.57;;;5.25;;
54705;SDS011;40603;48.774;8.916;2023-06-04T00:56:50;10.23;;;6.00;;
54705;SDS011;40603;48.774;8.916;2023-06-04T00:59:15;9.80;;;4.63;;
54705;SDS011;40603;48.774;8.916;2023-06-04T01:01:47;11.25;;;4.90;;
54705;SDS011;40603;48.774;8.916;2023-06-04T01:04:18;10.23;;;5.72;;
54705;SDS011;40603;48.774;8.916;2023-06-04T01:06:49;9.20;;;5.80;;
54705;SDS011;40603;48.774;8.916;2023-06-04T01:11:43;13.75;;;5.68;;
54705;SDS011;40603;48.774;8.916;2023-06-04T01:14:09;8.70;;;5.00;;
54705;SDS011;40603;48.774;8.916;2023-06-04T01:19:46;7.82;;;5.13;;
54705;SDS011;40603;48.774;8.916;2023-06-04T01:25:33;12.65;;;5.50;;
54705;SDS011;40603;48.774;8.916;2023-06-04T01:28:06;8.52;;;5.25;;
54705;SDS011;40603;48.774;8.916;2023-06-04T01:30:36;8.10;;;5.28;;
54705;SDS011;40603;48.774;8.916;2023-06-04T01:33:08;9.75;;;4.38;;
54705;SDS011;40603;48.774;8.916;2023-06-04T01:35:35;9.85;;;5.10;;
54705;SDS011;40603;48.774;8.916;2023-06-04T01:38:01;7.75;;;4.88;;
54705;SDS011;40603;48.774;8.916;2023-06-04T01:40:26;10.35;;;5.40;;
54705;SDS011;40603;48.774;8.916;2023-06-04T01:42:52;8.82;;;5.57;;
54705;SDS011;40603;48.774;8.916;2023-06-04T01:45:17;9.10;;;5.10;;
54705;SDS011;40603;48.774;8.916;2023-06-04T01:47:42;8.23;;;5.10;;
54705;SDS011;40603;48.774;8.916;2023-06-04T01:50:08;10.02;;;5.20;;
54705;SDS011;40603;48.774;8.916;2023-06-04T01:52:34;13.27;;;5.05;;
54705;SDS011;40603;48.774;8.916;2023-06-04T01:55:06;10.27;;;5.13;;
54705;SDS011;40603;48.774;8.916;2023-06-04T01:57:33;7.60;;;4.95;;
54705;SDS011;40603;48.774;8.916;2023-06-04T02:00:00;9.10;;;5.18;;
54705;SDS011;40603;48.774;8.916;2023-06-04T02:02:25;7.43;;;5.45;;
54705;SDS011;40603;48.774;8.916;2023-06-04T02:04:51;12.98;;;6.10;;
54705;SDS011;40603;48.774;8.916;2023-06-04T02:07:17;11.85;;;5.45;;
54705;SDS011;40603;48.774;8.916;2023-06-04T02:09:46;8.68;;;6.07;;
54705;SDS011;40603;48.774;8.916;2023-06-04T02:12:12;10.63;;;5.40;;
54705;SDS011;40603;48.774;8.916;2023-06-04T02:14:37;11.93;;;5.90;;
54705;SDS011;40603;48.774;8.916;2023-06-04T02:17:03;8.35;;;5.50;;
54705;SDS011;40603;48.774;8.916;2023-06-04T02:19:29;10.70;;;5.90;;
54705;SDS011;40603;48.774;8.916;2023-06-04T02:21:55;8.52;;;5.35;;
54705;SDS011;40603;48.774;8.916;2023-06-04T02:24:21;9.43;;;5.55;;
54705;SDS011;40603;48.774;8.916;2023-06-04T02:26:47;9.40;;;5.70;;
54705;SDS011;40603;48.774;8.916;2023-06-04T02:29:12;7.25;;;5.40;;
54705;SDS011;40603;48.774;8.916;2023-06-04T02:31:37;10.68;;;5.82;;
54705;SDS011;40603;48.774;8.916;2023-06-04T02:34:03;10.07;;;5.20;;
54705;SDS011;40603;48.774;8.916;2023-06-04T02:36:28;12.50;;;5.13;;
54705;SDS011;40603;48.774;8.916;2023-06-04T02:38:54;12.80;;;5.85;;
54705;SDS011;40603;48.774;8.916;2023-06-04T02:41:20;9.82;;;5.85;;
54705;SDS011;40603;48.774;8.916;2023-06-04T02:43:46;7.43;;;5.88;;
54705;SDS011;40603;48.774;8.916;2023-06-04T02:46:11;12.45;;;6.03;;
54705;SDS011;40603;48.774;8.916;2023-06-04T02:48:36;8.38;;;5.45;;
54705;SDS011;40603;48.774;8.916;2023-06-04T02:51:02;8.98;;;4.70;;
54705;SDS011;40603;48.774;8.916;2023-06-04T02:53:27;7.30;;;4.63;;
54705;SDS011;40603;48.774;8.916;2023-06-04T02:55:52;10.23;;;5.10;;
54705;SDS011;40603;48.774;8.916;2023-06-04T02:58:18;9.38;;;5.10;;
54705;SDS011;40603;48.774;8.916;2023-06-04T03:00:44;10.13;;;5.18;;
54705;SDS011;40603;48.774;8.916;2023-06-04T03:03:09;10.60;;;4.88;;
54705;SDS011;40603;48.774;8.916;2023-06-04T03:05:34;10.98;;;5.05;;
54705;SDS011;40603;48.774;8.916;2023-06-04T03:08:01;6.72;;;4.72;;
54705;SDS011;40603;48.774;8.916;2023-06-04T03:10:28;10.55;;;5.32;;
54705;SDS011;40603;48.774;8.916;2023-06-04T03:12:54;11.02;;;6.15;;
54705;SDS011;40603;48.774;8.916;2023-06-04T03:15:19;8.88;;;5.18;;
54705;SDS011;40603;48.774;8.916;2023-06-04T03:17:45;8.50;;;5.10;;
54705;SDS011;40603;48.774;8.916;2023-06-04T03:20:10;7.68;;;4.60;;
54705;SDS011;40603;48.774;8.916;2023-06-04T03:22:36;8.40;;;4.82;;
54705;SDS011;40603;48.774;8.916;2023-06-04T03:25:01;8.73;;;5.50;;
54705;SDS011;40603;48.774;8.916;2023-06-04T03:27:27;8.68;;;4.78;;
54705;SDS011;40603;48.774;8.916;2023-06-04T03:29:52;7.25;;;4.55;;
54705;SDS011;40603;48.774;8.916;2023-06-04T03:32:17;7.60;;;4.97;;
54705;SDS011;40603;48.774;8.916;2023-06-04T03:34:43;9.95;;;5.28;;
54705;SDS011;40603;48.774;8.916;2023-06-04T03:37:08;10.63;;;5.78;;
54705;SDS011;40603;48.774;8.916;2023-06-04T03:39:34;8.52;;;5.43;;
54705;SDS011;40603;48.774;8.916;2023-06-04T03:41:59;9.82;;;5.35;;
54705;SDS011;40603;48.774;8.916;2023-06-04T03:44:25;9.68;;;5.72;;
54705;SDS011;40603;48.774;8.916;2023-06-04T03:46:50;16.02;;;5.78;;
54705;SDS011;40603;48.774;8.916;2023-06-04T03:49:16;12.23;;;6.07;;
54705;SDS011;40603;48.774;8.916;2023-06-04T03:51:44;9.13;;;5.70;;
54705;SDS011;40603;48.774;8.916;2023-06-04T03:54:10;9.95;;;6.10;;
54705;SDS011;40603;48.774;8.916;2023-06-04T03:56:35;9.05;;;5.78;;
54705;SDS011;40603;48.774;8.916;2023-06-04T03:59:00;11.02;;;5.93;;
54705;SDS011;40603;48.774;8.916;2023-06-04T04:01:26;8.00;;;4.97;;
54705;SDS011;40603;48.774;8.916;2023-06-04T04:03:51;6.47;;;4.75;;
54705;SDS011;40603;48.774;8.916;2023-06-04T04:06:18;9.30;;;5.43;;
54705;SDS011;40603;48.774;8.916;2023-06-04T04:08:43;8.13;;;5.28;;
54705;SDS011;40603;48.774;8.916;2023-06-04T04:11:12;7.93;;;5.07;;
54705;SDS011;40603;48.774;8.916;2023-06-04T04:13:38;11.32;;;5.55;;
54705;SDS011;40603;48.774;8.916;2023-06-04T04:16:04;10.88;;;5.57;;
54705;SDS011;40603;48.774;8.916;2023-06-04T04:18:32;8.13;;;5.47;;
54705;SDS011;40603;48.774;8.916;2023-06-04T04:20:58;7.95;;;5.35;;
54705;SDS011;40603;48.774;8.916;2023-06-04T04:23:23;6.47;;;5.03;;
54705;SDS011;40603;48.774;8.916;2023-06-04T04:25:48;9.45;;;5.63;;
54705;SDS011;40603;48.774;8.916;2023-06-04T04:28:14;11.43;;;4.80;;
54705;SDS011;40603;48.774;8.916;2023-06-04T04:30:42;8.48;;;5.40;;
54705;SDS011;40603;48.774;8.916;2023-06-04T04:33:07;10.55;;;5.72;;
54705;SDS011;40603;48.774;8.916;2023-06-04T04:35:33;8.43;;;4.93;;
54705;SDS011;40603;48.774;8.916;2023-06-04T04:37:59;9.07;;;4.95;;
54705;SDS011;40603;48.774;8.916;2023-06-04T04:40:28;11.80;;;5.43;;
54705;SDS011;40603;48.774;8.916;2023-06-04T04:42:53;7.43;;;5.25;;
54705;SDS011;40603;48.774;8.916;2023-06-04T04:45:18;7.03;;;5.15;;
54705;SDS011;40603;48.774;8.916;2023-06-04T04:47:44;10.23;;;5.13;;
54705;SDS011;40603;48.774;8.916;2023-06-04T04:50:09;8.13;;;5.05;;
54705;SDS011;40603;48.774;8.916;2023-06-04T04:52:35;10.50;;;5.30;;
54705;SDS011;40603;48.774;8.916;2023-06-04T04:55:00;8.82;;;5.10;;
54705;SDS011;40603;48.774;8.916;2023-06-04T04:57:25;7.10;;;4.75;;
54705;SDS011;40603;48.774;8.916;2023-06-04T04:59:51;5.95;;;4.40;;
54705;SDS011;40603;48.774;8.916;2023-06-04T05:02:16;9.10;;;4.80;;
54705;SDS011;40603;48.774;8.916;2023-06-04T05:04:42;6.32;;;3.58;;
54705;SDS011;40603;48.774;8.916;2023-06-04T05:07:07;5.95;;;4.05;;
54705;SDS011;40603;48.774;8.916;2023-06-04T05:09:32;7.75;;;5.03;;
54705;SDS011;40603;48.774;8.916;2023-06-04T05:11:57;13.95;;;5.90;;
54705;SDS011;40603;48.774;8.916;2023-06-04T05:14:23;9.15;;;5.22;;
54705;SDS011;40603;48.774;8.916;2023-06-04T05:16:48;7.13;;;4.53;;
54705;SDS011;40603;48.774;8.916;2023-06-04T05:19:15;10.50;;;4.50;;
54705;SDS011;40603;48.774;8.916;2023-06-04T05:21:41;7.88;;;4.60;;
54705;SDS011;40603;48.774;8.916;2023-06-04T05:24:06;8.57;;;4.65;;
54705;SDS011;40603;48.774;8.916;2023-06-04T05:26:32;6.60;;;4.82;;
54705;SDS011;40603;48.774;8.916;2023-06-04T05:28:58;9.30;;;5.05;;
54705;SDS011;40603;48.774;8.916;2023-06-04T05:31:23;7.15;;;4.68;;
54705;SDS011;40603;48.774;8.916;2023-06-04T05:33:51;7.20;;;4.60;;
54705;SDS011;40603;48.774;8.916;2023-06-04T05:36:17;12.52;;;4.35;;
54705;SDS011;40603;48.774;8.916;2023-06-04T05:38:42;9.18;;;4.07;;
54705;SDS011;40603;48.774;8.916;2023-06-04T05:41:07;17.27;;;6.45;;
54705;SDS011;40603;48.774;8.916;2023-06-04T05:43:33;8.10;;;3.60;;
54705;SDS011;40603;48.774;8.916;2023-06-04T05:45:58;6.25;;;2.70;;
54705;SDS011;40603;48.774;8.916;2023-06-04T05:48:24;7.43;;;2.30;;
54705;SDS011;40603;48.774;8.916;2023-06-04T05:50:49;5.13;;;2.53;;
54705;SDS011;40603;48.774;8.916;2023-06-04T05:53:15;6.13;;;2.53;;
54705;SDS011;40603;48.774;8.916;2023-06-04T05:55:41;3.10;;;2.33;;
54705;SDS011;40603;48.774;8.916;2023-06-04T05:58:06;4.75;;;2.20;;
54705;SDS011;40603;48.774;8.916;2023-06-04T06:00:31;3.78;;;2.30;;
54705;SDS011;40603;48.774;8.916;2023-06-04T06:02:57;4.35;;;2.50;;
54705;SDS011;40603;48.774;8.916;2023-06-04T06:05:22;5.15;;;2.80;;
54705;SDS011;40603;48.774;8.916;2023-06-04T06:07:47;11.50;;;2.47;;
54705;SDS011;40603;48.774;8.916;2023-06-04T06:10:13;3.75;;;2.35;;
54705;SDS011;40603;48.774;8.916;2023-06-04T06:12:39;4.50;;;2.70;;
54705;SDS011;40603;48.774;8.916;2023-06-04T06:15:04;4.00;;;2.30;;
54705;SDS011;40603;48.774;8.916;2023-06-04T06:17:30;7.97;;;2.50;;
54705;SDS011;40603;48.774;8.916;2023-06-04T06:19:56;4.97;;;2.38;;
54705;SDS011;40603;48.774;8.916;2023-06-04T06:22:22;4.70;;;2.45;;
54705;SDS011;40603;48.774;8.916;2023-06-04T06:24:47;3.65;;;2.45;;
54705;SDS011;40603;48.774;8.916;2023-06-04T06:27:15;5.75;;;2.97;;
54705;SDS011;40603;48.774;8.916;2023-06-04T06:29:41;4.25;;;2.40;;
54705;SDS011;40603;48.774;8.916;2023-06-04T06:32:07;5.22;;;2.75;;
54705;SDS011;40603;48.774;8.916;2023-06-04T06:34:32;3.08;;;2.13;;
54705;SDS011;40603;48.774;8.916;2023-06-04T06:36:58;3.25;;;2.22;;
54705;SDS011;40603;48.774;8.916;2023-06-04T06:39:23;3.80;;;2.05;;
54705;SDS011;40603;48.774;8.916;2023-06-04T06:41:48;5.20;;;2.88;;
54705;SDS011;40603;48.774;8.916;2023-06-04T06:44:14;3.70;;;2.30;;
54705;SDS011;40603;48.774;8.916;2023-06-04T06:46:39;9.75;;;2.50;;
54705;SDS011;40603;48.774;8.916;2023-06-04T06:49:05;5.07;;;2.53;;
54705;SDS011;40603;48.774;8.916;2023-06-04T06:51:30;4.03;;;2.22;;
54705;SDS011;40603;48.774;8.916;2023-06-04T06:53:55;6.50;;;2.17;;
54705;SDS011;40603;48.774;8.916;2023-06-04T06:56:21;3.50;;;2.20;;
54705;SDS011;40603;48.774;8.916;2023-06-04T06:58:47;8.95;;;2.53;;
54705;SDS011;40603;48.774;8.916;2023-06-04T07:01:12;3.42;;;2.22;;
54705;SDS011;40603;48.774;8.916;2023-06-04T07:03:38;3.88;;;2.22;;
54705;SDS011;40603;48.774;8.916;2023-06-04T07:06:04;5.38;;;2.60;;
54705;SDS011;40603;48.774;8.916;2023-06-04T07:08:32;3.72;;;2.47;;
54705;SDS011;40603;48.774;8.916;2023-06-04T07:10:58;4.97;;;2.78;;
54705;SDS011;40603;48.774;8.916;2023-06-04T07:13:24;8.93;;;2.75;;
54705;SDS011;40603;48.774;8.916;2023-06-04T07:15:49;5.63;;;2.28;;
54705;SDS011;40603;48.774;8.916;2023-06-04T07:18:15;6.05;;;2.83;;
54705;SDS011;40603;48.774;8.916;2023-06-04T07:20:40;3.90;;;2.17;;
54705;SDS011;40603;48.774;8.916;2023-06-04T07:23:05;4.78;;;2.65;;
54705;SDS011;40603;48.774;8.916;2023-06-04T07:25:32;5.70;;;2.58;;
54705;SDS011;40603;48.774;8.916;2023-06-04T07:27:57;3.13;;;2.60;;
54705;SDS011;40603;48.774;8.916;2023-06-04T07:30:23;6.82;;;2.60;;
54705;SDS011;40603;48.774;8.916;2023-06-04T07:32:51;8.18;;;2.42;;
54705;SDS011;40603;48.774;8.916;2023-06-04T07:35:16;5.78;;;2.92;;
54705;SDS011;40603;48.774;8.916;2023-06-04T07:37:42;3.53;;;2.78;;
54705;SDS011;40603;48.774;8.916;2023-06-04T07:40:10;4.82;;;2.88;;
54705;SDS011;40603;48.774;8.916;2023-06-04T07:42:36;5.07;;;2.47;;
54705;SDS011;40603;48.774;8.916;2023-06-04T07:45:01;3.50;;;2.35;;
54705;SDS011;40603;48.774;8.916;2023-06-04T07:47:27;6.00;;;2.78;;
54705;SDS011;40603;48.774;8.916;2023-06-04T07:49:52;4.28;;;2.53;;
54705;SDS011;40603;48.774;8.916;2023-06-04T07:52:17;3.53;;;2.47;;
54705;SDS011;40603;48.774;8.916;2023-06-04T07:54:43;4.78;;;3.03;;
54705;SDS011;40603;48.774;8.916;2023-06-04T07:57:08;5.85;;;2.78;;
54705;SDS011;40603;48.774;8.916;2023-06-04T07:59:33;5.55;;;2.47;;
54705;SDS011;40603;48.774;8.916;2023-06-04T08:01:59;3.70;;;2.47;;
54705;SDS011;40603;48.774;8.916;2023-06-04T08:04:24;2.83;;;2.42;;
54705;SDS011;40603;48.774;8.916;2023-06-04T08:06:51;7.35;;;3.45;;
54705;SDS011;40603;48.774;8.916;2023-06-04T08:09:16;3.13;;;2.53;;
54705;SDS011;40603;48.774;8.916;2023-06-04T08:11:42;3.42;;;2.38;;
54705;SDS011;40603;48.774;8.916;2023-06-04T08:14:09;5.50;;;2.80;;
54705;SDS011;40603;48.774;8.916;2023-06-04T08:16:35;4.68;;;2.60;;
54705;SDS011;40603;48.774;8.916;2023-06-04T08:19:00;6.07;;;2.45;;
54705;SDS011;40603;48.774;8.916;2023-06-04T08:21:26;9.25;;;2.70;;
54705;SDS011;40603;48.774;8.916;2023-06-04T08:23:52;5.75;;;2.40;;
54705;SDS011;40603;48.774;8.916;2023-06-04T08:26:17;5.65;;;2.42;;
54705;SDS011;40603;48.774;8.916;2023-06-04T08:28:44;9.25;;;2.70;;
54705;SDS011;40603;48.774;8.916;2023-06-04T08:31:09;4.30;;;2.30;;
54705;SDS011;40603;48.774;8.916;2023-06-04T08:33:35;4.28;;;2.60;;
54705;SDS011;40603;48.774;8.916;2023-06-04T08:36:00;7.43;;;2.78;;
54705;SDS011;40603;48.774;8.916;2023-06-04T08:38:26;4.45;;;2.30;;
54705;SDS011;40603;48.774;8.916;2023-06-04T08:40:52;5.18;;;2.20;;
54705;SDS011;40603;48.774;8.916;2023-06-04T08:43:17;6.20;;;2.38;;
54705;SDS011;40603;48.774;8.916;2023-06-04T08:45:44;3.92;;;2.30;;
54705;SDS011;40603;48.774;8.916;2023-06-04T08:48:14;7.65;;;3.30;;
54705;SDS011;40603;48.774;8.916;2023-06-04T08:50:40;6.68;;;2.30;;
54705;SDS011;40603;48.774;8.916;2023-06-04T08:53:08;3.38;;;2.47;;
54705;SDS011;40603;48.774;8.916;2023-06-04T08:55:33;3.70;;;1.80;;
54705;SDS011;40603;48.774;8.916;2023-06-04T08:57:59;3.80;;;2.10;;
54705;SDS011;40603;48.774;8.916;2023-06-04T09:00:26;5.45;;;2.53;;
54705;SDS011;40603;48.774;8.916;2023-06-04T09:02:51;5.07;;;2.35;;
54705;SDS011;40603;48.774;8.916;2023-06-04T09:05:19;3.85;;;2.30;;
54705;SDS011;40603;48.774;8.916;2023-06-04T09:07:47;5.40;;;2.50;;
54705;SDS011;40603;48.774;8.916;2023-06-04T09:10:15;5.55;;;2.10;;
54705;SDS011;40603;48.774;8.916;2023-06-04T09:12:43;5.68;;;2.30;;
54705;SDS011;40603;48.774;8.916;2023-06-04T09:15:11;6.88;;;2.80;;
54705;SDS011;40603;48.774;8.916;2023-06-04T09:17:37;5.20;;;2.13;;
54705;SDS011;40603;48.774;8.916;2023-06-04T09:20:02;5.38;;;2.42;;
54705;SDS011;40603;48.774;8.916;2023-06-04T09:22:31;1.98;;;1.80;;
54705;SDS011;40603;48.774;8.916;2023-06-04T09:25:02;3.67;;;2.40;;
54705;SDS011;40603;48.774;8.916;2023-06-04T09:27:38;6.00;;;2.42;;
54705;SDS011;40603;48.774;8.916;2023-06-04T09:32:31;3.53;;;2.33;;
54705;SDS011;40603;48.774;8.916;2023-06-04T09:35:07;3.92;;;2.45;;
54705;SDS011;40603;48.774;8.916;2023-06-04T09:37:35;7.30;;;2.22;;
54705;SDS011;40603;48.774;8.916;2023-06-04T09:40:00;3.78;;;2.10;;
54705;SDS011;40603;48.774;8.916;2023-06-04T09:42:26;7.13;;;2.70;;
54705;SDS011;40603;48.774;8.916;2023-06-04T09:44:51;3.33;;;1.88;;
54705;SDS011;40603;48.774;8.916;2023-06-04T09:47:17;3.83;;;2.17;;
54705;SDS011;40603;48.774;8.916;2023-06-04T09:49:42;5.18;;;2.42;;
54705;SDS011;40603;48.774;8.916;2023-06-04T09:52:08;4.55;;;1.90;;
54705;SDS011;40603;48.774;8.916;2023-06-04T09:54:37;3.10;;;2.20;;
54705;SDS011;40603;48.774;8.916;2023-06-04T09:57:04;5.28;;;3.05;;
54705;SDS011;40603;48.774;8.916;2023-06-04T09:59:32;4.47;;;2.38;;
54705;SDS011;40603;48.774;8.916;2023-06-04T10:02:02;7.80;;;2.65;;
54705;SDS011;40603;48.774;8.916;2023-06-04T10:04:28;4.85;;;2.28;;
54705;SDS011;40603;48.774;8.916;2023-06-04T10:06:54;4.70;;;2.33;;
54705;SDS011;40603;48.774;8.916;2023-06-04T10:09:19;5.75;;;2.58;;
54705;SDS011;40603;48.774;8.916;2023-06-04T10:11:47;6.95;;;2.65;;
54705;SDS011;40603;48.774;8.916;2023-06-04T10:16:48;5.28;;;2.55;;
54705;SDS011;40603;48.774;8.916;2023-06-04T10:19:15;5.22;;;2.50;;
54705;SDS011;40603;48.774;8.916;2023-06-04T10:21:41;5.72;;;2.42;;
54705;SDS011;40603;48.774;8.916;2023-06-04T10:24:07;6.95;;;2.80;;
54705;SDS011;40603;48.774;8.916;2023-06-04T10:26:33;5.28;;;3.28;;
54705;SDS011;40603;48.774;8.916;2023-06-04T10:29:00;5.40;;;2.45;;
54705;SDS011;40603;48.774;8.916;2023-06-04T10:31:25;5.70;;;2.45;;
54705;SDS011;40603;48.774;8.916;2023-06-04T10:33:54;7.15;;;2.63;;
54705;SDS011;40603;48.774;8.916;2023-06-04T10:36:21;4.13;;;2.72;;
54705;SDS011;40603;48.774;8.916;2023-06-04T10:38:48;2.88;;;2.50;;
54705;SDS011;40603;48.774;8.916;2023-06-04T10:41:15;5.85;;;2.65;;
54705;SDS011;40603;48.774;8.916;2023-06-04T10:43:42;5.63;;;2.72;;
54705;SDS011;40603;48.774;8.916;2023-06-04T10:46:12;5.60;;;2.50;;
54705;SDS011;40603;48.774;8.916;2023-06-04T10:51:30;5.25;;;3.15;;
54705;SDS011;40603;48.774;8.916;2023-06-04T10:53:57;4.97;;;2.70;;
54705;SDS011;40603;48.774;8.916;2023-06-04T10:56:29;6.28;;;2.97;;
54705;SDS011;40603;48.774;8.916;2023-06-04T10:58:57;6.00;;;2.80;;
54705;SDS011;40603;48.774;8.916;2023-06-04T11:01:26;3.53;;;2.60;;
54705;SDS011;40603;48.774;8.916;2023-06-04T11:03:52;5.35;;;2.58;;
54705;SDS011;40603;48.774;8.916;2023-06-04T11:06:17;4.45;;;2.85;;
54705;SDS011;40603;48.774;8.916;2023-06-04T11:08:43;5.28;;;2.60;;
54705;SDS011;40603;48.774;8.916;2023-06-04T11:11:12;6.90;;;3.15;;
54705;SDS011;40603;48.774;8.916;2023-06-04T11:13:41;5.18;;;2.70;;
54705;SDS011;40603;48.774;8.916;2023-06-04T11:16:19;6.95;;;2.83;;
54705;SDS011;40603;48.774;8.916;2023-06-04T11:18:55;7.05;;;2.70;;
54705;SDS011;40603;48.774;8.916;2023-06-04T11:21:27;4.43;;;2.42;;
54705;SDS011;40603;48.774;8.916;2023-06-04T11:23:59;7.15;;;2.60;;
54705;SDS011;40603;48.774;8.916;2023-06-04T11:26:31;10.23;;;2.80;;
54705;SDS011;40603;48.774;8.916;2023-06-04T11:28:57;8.10;;;2.78;;
54705;SDS011;40603;48.774;8.916;2023-06-04T11:31:23;7.03;;;2.58;;
54705;SDS011;40603;48.774;8.916;2023-06-04T11:33:48;7.35;;;3.10;;
54705;SDS011;40603;48.774;8.916;2023-06-04T11:36:27;4.32;;;2.53;;
54705;SDS011;40603;48.774;8.916;2023-06-04T11:38:53;3.38;;;2.67;;
54705;SDS011;40603;48.774;8.916;2023-06-04T11:41:31;5.22;;;3.75;;
54705;SDS011;40603;48.774;8.916;2023-06-04T11:43:57;5.68;;;3.25;;
54705;SDS011;40603;48.774;8.916;2023-06-04T11:46:23;6.00;;;3.03;;
54705;SDS011;40603;48.774;8.916;2023-06-04T11:48:51;5.45;;;2.80;;
54705;SDS011;40603;48.774;8.916;2023-06-04T11:51:20;4.35;;;3.20;;
54705;SDS011;40603;48.774;8.916;2023-06-04T11:53:46;4.18;;;2.75;;
54705;SDS011;40603;48.774;8.916;2023-06-04T11:56:11;6.80;;;3.17;;
54705;SDS011;40603;48.774;8.916;2023-06-04T11:58:37;4.72;;;2.95;;
54705;SDS011;40603;48.774;8.916;2023-06-04T12:01:03;4.35;;;2.85;;
54705;SDS011;40603;48.774;8.916;2023-06-04T12:03:38;5.68;;;3.00;;
54705;SDS011;40603;48.774;8.916;2023-06-04T12:06:11;5.40;;;3.20;;
54705;SDS011;40603;48.774;8.916;2023-06-04T12:11:24;5.80;;;3.03;;
54705;SDS011;40603;48.774;8.916;2023-06-04T12:13:51;5.45;;;3.38;;
54705;SDS011;40603;48.774;8.916;2023-06-04T12:16:17;4.65;;;2.53;;
54705;SDS011;40603;48.774;8.916;2023-06-04T12:18:42;5.90;;;2.90;;
54705;SDS011;40603;48.774;8.916;2023-06-04T12:21:18;5.20;;;3.03;;
54705;SDS011;40603;48.774;8.916;2023-06-04T12:23:44;4.80;;;2.75;;
54705;SDS011;40603;48.774;8.916;2023-06-04T12:26:19;7.50;;;3.53;;
54705;SDS011;40603;48.774;8.916;2023-06-04T12:31:38;6.28;;;2.75;;
54705;SDS011;40603;48.774;8.916;2023-06-04T12:34:08;5.38;;;3.20;;
54705;SDS011;40603;48.774;8.916;2023-06-04T12:36:33;6.10;;;3.25;;
54705;SDS011;40603;48.774;8.916;2023-06-04T12:38:59;3.60;;;2.45;;
54705;SDS011;40603;48.774;8.916;2023-06-04T12:41:26;6.88;;;2.60;;
54705;SDS011;40603;48.774;8.916;2023-06-04T12:43:52;4.28;;;2.58;;
54705;SDS011;40603;48.774;8.916;2023-06-04T12:46:17;5.00;;;2.92;;
54705;SDS011;40603;48.774;8.916;2023-06-04T12:48:42;6.72;;;2.78;;
54705;SDS011;40603;48.774;8.916;2023-06-04T12:51:08;10.27;;;3.35;;
54705;SDS011;40603;48.774;8.916;2023-06-04T12:53:35;5.53;;;2.58;;
54705;SDS011;40603;48.774;8.916;2023-06-04T12:56:03;3.97;;;2.45;;
54705;SDS011;40603;48.774;8.916;2023-06-04T12:58:28;4.30;;;2.75;;
54705;SDS011;40603;48.774;8.916;2023-06-04T13:00:53;4.40;;;3.10;;
54705;SDS011;40603;48.774;8.916;2023-06-04T13:03:18;4.43;;;2.47;;
54705;SDS011;40603;48.774;8.916;2023-06-04T13:05:44;9.75;;;2.60;;
54705;SDS011;40603;48.774;8.916;2023-06-04T13:08:09;3.63;;;2.03;;
54705;SDS011;40603;48.774;8.916;2023-06-04T13:10:35;2.97;;;2.05;;
54705;SDS011;40603;48.774;8.916;2023-06-04T13:13:00;8.60;;;2.80;;
54705;SDS011;40603;48.774;8.916;2023-06-04T13:15:26;4.15;;;2.60;;
54705;SDS011;40603;48.774;8.916;2023-06-04T13:17:51;5.90;;;2.70;;
54705;SDS011;40603;48.774;8.916;2023-06-04T13:20:16;4.15;;;2.50;;
54705;SDS011;40603;48.774;8.916;2023-06-04T13:22:41;3.33;;;2.58;;
54705;SDS011;40603;48.774;8.916;2023-06-04T13:25:08;3.45;;;2.42;;
54705;SDS011;40603;48.774;8.916;2023-06-04T13:27:34;4.55;;;2.45;;
54705;SDS011;40603;48.774;8.916;2023-06-04T13:29:59;3.33;;;2.50;;
54705;SDS011;40603;48.774;8.916;2023-06-04T13:32:24;4.20;;;2.40;;
54705;SDS011;40603;48.774;8.916;2023-06-04T13:34:50;3.25;;;2.47;;
54705;SDS011;40603;48.774;8.916;2023-06-04T13:37:15;3.50;;;2.55;;
54705;SDS011;40603;48.774;8.916;2023-06-04T13:39:40;7.65;;;2.30;;
54705;SDS011;40603;48.774;8.916;2023-06-04T13:42:06;3.72;;;2.72;;
54705;SDS011;40603;48.774;8.916;2023-06-04T13:44:31;5.65;;;2.83;;
54705;SDS011;40603;48.774;8.916;2023-06-04T13:46:58;3.22;;;2.33;;
54705;SDS011;40603;48.774;8.916;2023-06-04T13:49:23;3.70;;;2.42;;
54705;SDS011;40603;48.774;8.916;2023-06-04T13:51:49;4.15;;;2.80;;
54705;SDS011;40603;48.774;8.916;2023-06-04T13:54:14;4.25;;;2.92;;
54705;SDS011;40603;48.774;8.916;2023-06-04T13:56:39;5.43;;;2.55;;
54705;SDS011;40603;48.774;8.916;2023-06-04T13:59:05;8.50;;;2.75;;
54705;SDS011;40603;48.774;8.916;2023-06-04T14:01:31;6.10;;;3.10;;
54705;SDS011;40603;48.774;8.916;2023-06-04T14:03:56;4.65;;;3.05;;
54705;SDS011;40603;48.774;8.916;2023-06-04T14:06:23;6.53;;;3.05;;
54705;SDS011;40603;48.774;8.916;2023-06-04T14:08:48;4.70;;;2.60;;
54705;SDS011;40603;48.774;8.916;2023-06-04T14:11:14;5.85;;;3.00;;
54705;SDS011;40603;48.774;8.916;2023-06-04T14:13:39;4.60;;;3.00;;
54705;SDS011;40603;48.774;8.916;2023-06-04T14:16:06;3.47;;;2.60;;
54705;SDS011;40603;48.774;8.916;2023-06-04T14:18:31;3.83;;;2.58;;
54705;SDS011;40603;48.774;8.916;2023-06-04T14:20:56;3.95;;;2.58;;
54705;SDS011;40603;48.774;8.916;2023-06-04T14:23:22;8.25;;;3.38;;
54705;SDS011;40603;48.774;8.916;2023-06-04T14:25:47;4.55;;;2.70;;
54705;SDS011;40603;48.774;8.916;2023-06-04T14:28:12;3.85;;;3.10;;
54705;SDS011;40603;48.774;8.916;2023-06-04T14:30:37;6.13;;;2.80;;
54705;SDS011;40603;48.774;8.916;2023-06-04T14:33:03;5.35;;;3.15;;
54705;SDS011;40603;48.774;8.916;2023-06-04T14:35:28;3.60;;;3.00;;
54705;SDS011;40603;48.774;8.916;2023-06-04T14:37:53;6.85;;;3.28;;
54705;SDS011;40603;48.774;8.916;2023-06-04T14:40:19;5.38;;;2.83;;
54705;SDS011;40603;48.774;8.916;2023-06-04T14:42:44;3.53;;;2.50;;
54705;SDS011;40603;48.774;8.916;2023-06-04T14:45:10;4.38;;;3.00;;
54705;SDS011;40603;48.774;8.916;2023-06-04T14:47:35;5.53;;;3.17;;
54705;SDS011;40603;48.774;8.916;2023-06-04T14:50:00;7.10;;;2.92;;
54705;SDS011;40603;48.774;8.916;2023-06-04T14:52:25;4.53;;;2.83;;
54705;SDS011;40603;48.774;8.916;2023-06-04T14:54:52;3.47;;;2.70;;
54705;SDS011;40603;48.774;8.916;2023-06-04T14:57:18;10.05;;;3.03;;
54705;SDS011;40603;48.774;8.916;2023-06-04T14:59:44;5.97;;;2.95;;
54705;SDS011;40603;48.774;8.916;2023-06-04T15:02:10;3.58;;;2.60;;